sensor_id;sensor_type;location;lat;lon;timestamp;P1;durP1;ratioP1;P2;durP2;ratioP2
30892;SDS011;17595;50.884;4.346;2022-12-18T00:01:16;48.70;;;24.17;;
30892;SDS011;17595;50.884;4.346;2022-12-18T00:03:46;47.33;;;23.70;;
30892;SDS011;17595;50.884;4.346;2022-12-18T00:06:12;45.67;;;23.63;;
30892;SDS011;17595;50.884;4.346;2022-12-18T00:08:38;46.78;;;23.85;;
30892;SDS011;17595;50.884;4.346;2022-12-18T00:11:05;51.40;;;25.27;;
30892;SDS011;17595;50.884;4.346;2022-12-18T00:13:32;46.92;;;23.35;;
30892;SDS011;17595;50.884;4.346;2022-12-18T00:16:05;42.53;;;22.30;;
30892;SDS011;17595;50.884;4.346;2022-12-18T00:18:33;41.60;;;21.17;;
30892;SDS011;17595;50.884;4.346;2022-12-18T00:20:59;42.67;;;22.67;;
30892;SDS011;17595;50.884;4.346;2022-12-18T00:23:26;44.83;;;22.40;;
30892;SDS011;17595;50.884;4.346;2022-12-18T00:25:53;42.63;;;21.45;;
30892;SDS011;17595;50.884;4.346;2022-12-18T00:28:18;46.08;;;21.48;;
30892;SDS011;17595;50.884;4.346;2022-12-18T00:30:44;41.08;;;20.60;;
30892;SDS011;17595;50.884;4.346;2022-12-18T00:33:09;39.80;;;20.90;;
30892;SDS011;17595;50.884;4.346;2022-12-18T00:35:35;44.45;;;22.10;;
30892;SDS011;17595;50.884;4.346;2022-12-18T00:38:01;43.00;;;20.40;;
30892;SDS011;17595;50.884;4.346;2022-12-18T00:40:26;41.05;;;21.02;;
30892;SDS011;17595;50.884;4.346;2022-12-18T00:42:52;41.50;;;22.05;;
30892;SDS011;17595;50.884;4.346;2022-12-18T00:45:20;42.15;;;21.90;;
30892;SDS011;17595;50.884;4.346;2022-12-18T00:47:48;38.65;;;20.17;;
30892;SDS011;17595;50.884;4.346;2022-12-18T00:50:14;39.33;;;20.23;;
30892;SDS011;17595;50.884;4.346;2022-12-18T00:52:40;37.90;;;21.30;;
30892;SDS011;17595;50.884;4.346;2022-12-18T00:55:06;41.58;;;20.27;;
30892;SDS011;17595;50.884;4.346;2022-12-18T00:57:32;38.00;;;20.33;;
30892;SDS011;17595;50.884;4.346;2022-12-18T00:59:58;39.92;;;20.08;;
30892;SDS011;17595;50.884;4.346;2022-12-18T01:02:24;35.35;;;18.70;;
30892;SDS011;17595;50.884;4.346;2022-12-18T01:04:49;39.05;;;19.70;;
30892;SDS011;17595;50.884;4.346;2022-12-18T01:07:15;42.28;;;19.92;;
30892;SDS011;17595;50.884;4.346;2022-12-18T01:09:40;38.78;;;20.02;;
30892;SDS011;17595;50.884;4.346;2022-12-18T01:12:06;39.65;;;19.55;;
30892;SDS011;17595;50.884;4.346;2022-12-18T01:14:32;41.88;;;20.15;;
30892;SDS011;17595;50.884;4.346;2022-12-18T01:16:57;41.30;;;20.58;;
30892;SDS011;17595;50.884;4.346;2022-12-18T01:19:23;36.70;;;19.58;;
30892;SDS011;17595;50.884;4.346;2022-12-18T01:21:49;38.42;;;20.45;;
30892;SDS011;17595;50.884;4.346;2022-12-18T01:24:14;36.55;;;18.50;;
30892;SDS011;17595;50.884;4.346;2022-12-18T01:26:40;34.35;;;18.38;;
30892;SDS011;17595;50.884;4.346;2022-12-18T01:29:06;38.00;;;20.35;;
30892;SDS011;17595;50.884;4.346;2022-12-18T01:31:32;38.30;;;19.08;;
30892;SDS011;17595;50.884;4.346;2022-12-18T01:34:02;37.17;;;18.85;;
30892;SDS011;17595;50.884;4.346;2022-12-18T01:36:29;37.17;;;19.45;;
30892;SDS011;17595;50.884;4.346;2022-12-18T01:39:01;36.45;;;19.48;;
30892;SDS011;17595;50.884;4.346;2022-12-18T01:41:31;38.05;;;18.48;;
30892;SDS011;17595;50.884;4.346;2022-12-18T01:52:56;39.50;;;19.27;;
30892;SDS011;17595;50.884;4.346;2022-12-18T01:55:28;39.03;;;18.80;;
30892;SDS011;17595;50.884;4.346;2022-12-18T01:57:57;30.27;;;16.92;;
30892;SDS011;17595;50.884;4.346;2022-12-18T02:00:24;35.88;;;17.77;;
30892;SDS011;17595;50.884;4.346;2022-12-18T02:02:51;34.70;;;17.85;;
30892;SDS011;17595;50.884;4.346;2022-12-18T02:05:19;39.45;;;18.67;;
30892;SDS011;17595;50.884;4.346;2022-12-18T02:18:56;30.85;;;15.77;;
30892;SDS011;17595;50.884;4.346;2022-12-18T02:21:28;32.42;;;16.02;;
30892;SDS011;17595;50.884;4.346;2022-12-18T02:26:41;29.23;;;16.08;;
30892;SDS011;17595;50.884;4.346;2022-12-18T02:29:13;29.27;;;15.63;;
30892;SDS011;17595;50.884;4.346;2022-12-18T02:31:49;35.58;;;16.73;;
30892;SDS011;17595;50.884;4.346;2022-12-18T02:34:17;29.08;;;15.52;;
30892;SDS011;17595;50.884;4.346;2022-12-18T02:36:45;30.75;;;15.50;;
30892;SDS011;17595;50.884;4.346;2022-12-18T02:39:13;31.93;;;16.63;;
30892;SDS011;17595;50.884;4.346;2022-12-18T02:41:40;30.50;;;16.52;;
30892;SDS011;17595;50.884;4.346;2022-12-18T02:44:07;29.90;;;15.77;;
30892;SDS011;17595;50.884;4.346;2022-12-18T02:46:40;30.95;;;15.38;;
30892;SDS011;17595;50.884;4.346;2022-12-18T02:55:29;29.48;;;16.00;;
30892;SDS011;17595;50.884;4.346;2022-12-18T02:57:41;32.35;;;15.52;;
30892;SDS011;17595;50.884;4.346;2022-12-18T03:00:18;31.40;;;16.15;;
30892;SDS011;17595;50.884;4.346;2022-12-18T03:02:53;27.13;;;14.95;;
30892;SDS011;17595;50.884;4.346;2022-12-18T03:05:30;31.58;;;15.80;;
30892;SDS011;17595;50.884;4.346;2022-12-18T03:08:15;29.17;;;14.77;;
30892;SDS011;17595;50.884;4.346;2022-12-18T03:10:46;29.55;;;15.25;;
30892;SDS011;17595;50.884;4.346;2022-12-18T03:13:20;29.65;;;14.90;;
30892;SDS011;17595;50.884;4.346;2022-12-18T03:15:58;28.52;;;14.88;;
30892;SDS011;17595;50.884;4.346;2022-12-18T03:21:05;28.55;;;14.98;;
30892;SDS011;17595;50.884;4.346;2022-12-18T03:23:34;25.83;;;14.85;;
30892;SDS011;17595;50.884;4.346;2022-12-18T03:26:07;27.83;;;13.93;;
30892;SDS011;17595;50.884;4.346;2022-12-18T03:28:36;25.05;;;14.48;;
30892;SDS011;17595;50.884;4.346;2022-12-18T03:31:05;24.80;;;14.05;;
30892;SDS011;17595;50.884;4.346;2022-12-18T03:33:38;27.25;;;15.02;;
30892;SDS011;17595;50.884;4.346;2022-12-18T03:36:15;29.10;;;15.43;;
30892;SDS011;17595;50.884;4.346;2022-12-18T03:38:41;28.83;;;14.63;;
30892;SDS011;17595;50.884;4.346;2022-12-18T03:41:30;29.20;;;13.80;;
30892;SDS011;17595;50.884;4.346;2022-12-18T03:49:43;27.65;;;14.48;;
30892;SDS011;17595;50.884;4.346;2022-12-18T03:52:18;33.03;;;14.80;;
30892;SDS011;17595;50.884;4.346;2022-12-18T03:54:49;30.33;;;14.73;;
30892;SDS011;17595;50.884;4.346;2022-12-18T03:57:18;28.17;;;14.52;;
30892;SDS011;17595;50.884;4.346;2022-12-18T03:59:45;28.92;;;15.07;;
30892;SDS011;17595;50.884;4.346;2022-12-18T04:02:15;28.80;;;15.10;;
30892;SDS011;17595;50.884;4.346;2022-12-18T04:04:42;28.70;;;14.23;;
30892;SDS011;17595;50.884;4.346;2022-12-18T04:07:09;27.50;;;14.23;;
30892;SDS011;17595;50.884;4.346;2022-12-18T04:09:36;26.60;;;13.85;;
30892;SDS011;17595;50.884;4.346;2022-12-18T04:12:04;27.42;;;13.85;;
30892;SDS011;17595;50.884;4.346;2022-12-18T04:14:29;26.20;;;13.48;;
30892;SDS011;17595;50.884;4.346;2022-12-18T04:17:00;22.92;;;12.38;;
30892;SDS011;17595;50.884;4.346;2022-12-18T04:19:26;23.45;;;12.30;;
30892;SDS011;17595;50.884;4.346;2022-12-18T04:21:52;24.35;;;12.40;;
30892;SDS011;17595;50.884;4.346;2022-12-18T04:24:17;22.70;;;12.65;;
30892;SDS011;17595;50.884;4.346;2022-12-18T04:26:43;22.52;;;12.45;;
30892;SDS011;17595;50.884;4.346;2022-12-18T04:29:09;24.17;;;12.50;;
30892;SDS011;17595;50.884;4.346;2022-12-18T04:31:34;26.52;;;13.27;;
30892;SDS011;17595;50.884;4.346;2022-12-18T04:34:00;27.85;;;12.80;;
30892;SDS011;17595;50.884;4.346;2022-12-18T04:36:26;26.45;;;12.30;;
30892;SDS011;17595;50.884;4.346;2022-12-18T04:38:51;24.33;;;13.02;;
30892;SDS011;17595;50.884;4.346;2022-12-18T04:41:17;22.40;;;12.55;;
30892;SDS011;17595;50.884;4.346;2022-12-18T04:43:43;22.90;;;12.00;;
30892;SDS011;17595;50.884;4.346;2022-12-18T04:46:08;23.05;;;12.30;;
30892;SDS011;17595;50.884;4.346;2022-12-18T04:48:34;22.70;;;12.32;;
30892;SDS011;17595;50.884;4.346;2022-12-18T04:51:00;21.33;;;11.65;;
30892;SDS011;17595;50.884;4.346;2022-12-18T04:53:26;22.75;;;12.73;;
30892;SDS011;17595;50.884;4.346;2022-12-18T04:56:01;23.25;;;12.30;;
30892;SDS011;17595;50.884;4.346;2022-12-18T04:58:31;19.95;;;10.70;;
30892;SDS011;17595;50.884;4.346;2022-12-18T05:00:57;23.30;;;11.93;;
30892;SDS011;17595;50.884;4.346;2022-12-18T05:03:22;18.13;;;11.15;;
30892;SDS011;17595;50.884;4.346;2022-12-18T05:05:51;23.58;;;11.88;;
30892;SDS011;17595;50.884;4.346;2022-12-18T05:08:17;23.77;;;12.50;;
30892;SDS011;17595;50.884;4.346;2022-12-18T05:10:43;19.80;;;11.43;;
30892;SDS011;17595;50.884;4.346;2022-12-18T05:13:08;23.35;;;11.73;;
30892;SDS011;17595;50.884;4.346;2022-12-18T05:15:34;22.73;;;12.07;;
30892;SDS011;17595;50.884;4.346;2022-12-18T05:18:00;19.38;;;11.57;;
30892;SDS011;17595;50.884;4.346;2022-12-18T05:20:27;20.20;;;11.05;;
30892;SDS011;17595;50.884;4.346;2022-12-18T05:22:53;19.73;;;11.05;;
30892;SDS011;17595;50.884;4.346;2022-12-18T05:25:19;24.02;;;11.45;;
30892;SDS011;17595;50.884;4.346;2022-12-18T05:27:45;20.73;;;10.75;;
30892;SDS011;17595;50.884;4.346;2022-12-18T05:30:11;22.83;;;10.95;;
30892;SDS011;17595;50.884;4.346;2022-12-18T05:32:38;20.83;;;10.68;;
30892;SDS011;17595;50.884;4.346;2022-12-18T05:35:04;21.35;;;10.25;;
30892;SDS011;17595;50.884;4.346;2022-12-18T05:37:32;19.33;;;10.97;;
30892;SDS011;17595;50.884;4.346;2022-12-18T05:39:57;19.73;;;10.45;;
30892;SDS011;17595;50.884;4.346;2022-12-18T05:42:23;19.35;;;10.98;;
30892;SDS011;17595;50.884;4.346;2022-12-18T05:44:49;18.52;;;10.82;;
30892;SDS011;17595;50.884;4.346;2022-12-18T05:47:15;19.08;;;10.50;;
30892;SDS011;17595;50.884;4.346;2022-12-18T05:49:40;20.73;;;10.73;;
30892;SDS011;17595;50.884;4.346;2022-12-18T05:52:06;18.48;;;10.80;;
30892;SDS011;17595;50.884;4.346;2022-12-18T05:54:32;20.50;;;11.15;;
30892;SDS011;17595;50.884;4.346;2022-12-18T05:56:57;20.40;;;10.30;;
30892;SDS011;17595;50.884;4.346;2022-12-18T05:59:23;21.25;;;10.70;;
30892;SDS011;17595;50.884;4.346;2022-12-18T06:01:49;27.27;;;11.45;;
30892;SDS011;17595;50.884;4.346;2022-12-18T06:04:15;21.52;;;11.55;;
30892;SDS011;17595;50.884;4.346;2022-12-18T06:06:40;22.17;;;10.57;;
30892;SDS011;17595;50.884;4.346;2022-12-18T06:09:06;22.70;;;11.57;;
30892;SDS011;17595;50.884;4.346;2022-12-18T06:11:35;22.92;;;11.32;;
30892;SDS011;17595;50.884;4.346;2022-12-18T06:14:02;19.75;;;11.38;;
30892;SDS011;17595;50.884;4.346;2022-12-18T06:16:29;23.63;;;11.63;;
30892;SDS011;17595;50.884;4.346;2022-12-18T06:18:58;19.10;;;10.77;;
30892;SDS011;17595;50.884;4.346;2022-12-18T06:21:24;20.35;;;10.20;;
30892;SDS011;17595;50.884;4.346;2022-12-18T06:23:50;21.40;;;10.85;;
30892;SDS011;17595;50.884;4.346;2022-12-18T06:26:15;21.65;;;11.15;;
30892;SDS011;17595;50.884;4.346;2022-12-18T06:28:41;21.00;;;10.90;;
30892;SDS011;17595;50.884;4.346;2022-12-18T06:31:07;18.63;;;10.00;;
30892;SDS011;17595;50.884;4.346;2022-12-18T06:33:33;17.45;;;9.82;;
30892;SDS011;17595;50.884;4.346;2022-12-18T06:36:04;19.50;;;10.82;;
30892;SDS011;17595;50.884;4.346;2022-12-18T06:38:32;21.80;;;10.98;;
30892;SDS011;17595;50.884;4.346;2022-12-18T06:40:59;18.27;;;10.15;;
30892;SDS011;17595;50.884;4.346;2022-12-18T06:43:24;17.52;;;10.57;;
30892;SDS011;17595;50.884;4.346;2022-12-18T06:45:50;21.05;;;10.75;;
30892;SDS011;17595;50.884;4.346;2022-12-18T06:48:19;17.58;;;10.20;;
30892;SDS011;17595;50.884;4.346;2022-12-18T06:50:45;21.25;;;10.90;;
30892;SDS011;17595;50.884;4.346;2022-12-18T06:53:10;22.33;;;11.45;;
30892;SDS011;17595;50.884;4.346;2022-12-18T06:55:36;17.10;;;10.23;;
30892;SDS011;17595;50.884;4.346;2022-12-18T06:58:02;18.63;;;11.18;;
30892;SDS011;17595;50.884;4.346;2022-12-18T07:00:27;23.10;;;11.05;;
30892;SDS011;17595;50.884;4.346;2022-12-18T07:02:53;17.92;;;9.75;;
30892;SDS011;17595;50.884;4.346;2022-12-18T07:05:19;20.17;;;10.13;;
30892;SDS011;17595;50.884;4.346;2022-12-18T07:07:44;17.90;;;10.10;;
30892;SDS011;17595;50.884;4.346;2022-12-18T07:10:10;19.27;;;10.07;;
30892;SDS011;17595;50.884;4.346;2022-12-18T07:12:35;18.08;;;9.43;;
30892;SDS011;17595;50.884;4.346;2022-12-18T07:15:01;15.63;;;9.95;;
30892;SDS011;17595;50.884;4.346;2022-12-18T07:17:27;17.98;;;9.50;;
30892;SDS011;17595;50.884;4.346;2022-12-18T07:19:54;18.08;;;8.95;;
30892;SDS011;17595;50.884;4.346;2022-12-18T07:22:20;18.58;;;9.90;;
30892;SDS011;17595;50.884;4.346;2022-12-18T07:24:45;19.70;;;10.10;;
30892;SDS011;17595;50.884;4.346;2022-12-18T07:27:14;18.85;;;10.07;;
30892;SDS011;17595;50.884;4.346;2022-12-18T07:29:39;18.08;;;9.25;;
30892;SDS011;17595;50.884;4.346;2022-12-18T07:32:05;16.05;;;9.23;;
30892;SDS011;17595;50.884;4.346;2022-12-18T07:34:31;16.17;;;8.90;;
30892;SDS011;17595;50.884;4.346;2022-12-18T07:36:57;17.95;;;9.15;;
30892;SDS011;17595;50.884;4.346;2022-12-18T07:39:23;16.77;;;9.02;;
30892;SDS011;17595;50.884;4.346;2022-12-18T07:41:48;16.92;;;10.35;;
30892;SDS011;17595;50.884;4.346;2022-12-18T07:44:34;15.68;;;9.18;;
30892;SDS011;17595;50.884;4.346;2022-12-18T07:47:00;15.88;;;8.30;;
30892;SDS011;17595;50.884;4.346;2022-12-18T07:49:26;15.57;;;8.40;;
30892;SDS011;17595;50.884;4.346;2022-12-18T07:51:53;17.58;;;8.73;;
30892;SDS011;17595;50.884;4.346;2022-12-18T07:56:47;16.95;;;7.93;;
30892;SDS011;17595;50.884;4.346;2022-12-18T07:59:13;15.07;;;8.48;;
30892;SDS011;17595;50.884;4.346;2022-12-18T08:01:38;18.10;;;8.73;;
30892;SDS011;17595;50.884;4.346;2022-12-18T08:04:04;17.00;;;9.18;;
30892;SDS011;17595;50.884;4.346;2022-12-18T08:06:30;17.27;;;8.40;;
30892;SDS011;17595;50.884;4.346;2022-12-18T08:08:56;13.57;;;8.32;;
30892;SDS011;17595;50.884;4.346;2022-12-18T08:11:22;15.98;;;9.18;;
30892;SDS011;17595;50.884;4.346;2022-12-18T08:13:49;17.52;;;7.95;;
30892;SDS011;17595;50.884;4.346;2022-12-18T08:16:16;16.38;;;7.97;;
30892;SDS011;17595;50.884;4.346;2022-12-18T08:18:43;15.68;;;8.50;;
30892;SDS011;17595;50.884;4.346;2022-12-18T08:21:09;17.15;;;8.65;;
30892;SDS011;17595;50.884;4.346;2022-12-18T08:23:35;16.92;;;8.82;;
30892;SDS011;17595;50.884;4.346;2022-12-18T08:26:01;14.48;;;8.13;;
30892;SDS011;17595;50.884;4.346;2022-12-18T08:28:26;13.98;;;8.07;;
30892;SDS011;17595;50.884;4.346;2022-12-18T08:30:52;16.85;;;8.48;;
30892;SDS011;17595;50.884;4.346;2022-12-18T08:33:18;15.98;;;7.63;;
30892;SDS011;17595;50.884;4.346;2022-12-18T08:35:44;14.90;;;8.38;;
30892;SDS011;17595;50.884;4.346;2022-12-18T08:38:10;15.20;;;8.30;;
30892;SDS011;17595;50.884;4.346;2022-12-18T08:40:36;14.75;;;7.68;;
30892;SDS011;17595;50.884;4.346;2022-12-18T08:43:01;15.50;;;7.68;;
30892;SDS011;17595;50.884;4.346;2022-12-18T08:45:45;11.48;;;7.45;;
30892;SDS011;17595;50.884;4.346;2022-12-18T08:48:11;11.52;;;7.90;;
30892;SDS011;17595;50.884;4.346;2022-12-18T08:50:36;14.80;;;7.45;;
30892;SDS011;17595;50.884;4.346;2022-12-18T08:53:02;13.55;;;8.10;;
30892;SDS011;17595;50.884;4.346;2022-12-18T08:55:28;13.20;;;8.00;;
30892;SDS011;17595;50.884;4.346;2022-12-18T08:57:54;15.50;;;8.02;;
30892;SDS011;17595;50.884;4.346;2022-12-18T09:00:19;16.70;;;8.27;;
30892;SDS011;17595;50.884;4.346;2022-12-18T09:02:45;13.52;;;6.55;;
30892;SDS011;17595;50.884;4.346;2022-12-18T09:05:11;14.85;;;7.90;;
30892;SDS011;17595;50.884;4.346;2022-12-18T09:07:36;15.30;;;7.53;;
30892;SDS011;17595;50.884;4.346;2022-12-18T09:10:02;14.30;;;7.40;;
30892;SDS011;17595;50.884;4.346;2022-12-18T09:12:28;14.50;;;7.28;;
30892;SDS011;17595;50.884;4.346;2022-12-18T09:14:54;16.48;;;8.55;;
30892;SDS011;17595;50.884;4.346;2022-12-18T09:17:21;13.30;;;7.70;;
30892;SDS011;17595;50.884;4.346;2022-12-18T09:19:46;14.20;;;7.57;;
30892;SDS011;17595;50.884;4.346;2022-12-18T09:22:12;15.60;;;8.32;;
30892;SDS011;17595;50.884;4.346;2022-12-18T09:24:38;14.80;;;7.78;;
30892;SDS011;17595;50.884;4.346;2022-12-18T09:27:03;13.57;;;7.47;;
30892;SDS011;17595;50.884;4.346;2022-12-18T09:29:29;15.30;;;8.88;;
30892;SDS011;17595;50.884;4.346;2022-12-18T09:31:55;14.20;;;8.38;;
30892;SDS011;17595;50.884;4.346;2022-12-18T09:34:20;13.90;;;8.43;;
30892;SDS011;17595;50.884;4.346;2022-12-18T09:36:46;11.93;;;7.60;;
30892;SDS011;17595;50.884;4.346;2022-12-18T09:39:13;14.80;;;8.75;;
30892;SDS011;17595;50.884;4.346;2022-12-18T09:41:46;12.63;;;7.72;;
30892;SDS011;17595;50.884;4.346;2022-12-18T09:49:42;16.17;;;8.75;;
30892;SDS011;17595;50.884;4.346;2022-12-18T09:57:29;18.35;;;9.30;;
30892;SDS011;17595;50.884;4.346;2022-12-18T10:00:04;15.90;;;9.40;;
30892;SDS011;17595;50.884;4.346;2022-12-18T10:02:40;16.00;;;9.25;;
30892;SDS011;17595;50.884;4.346;2022-12-18T10:05:12;16.35;;;10.13;;
30892;SDS011;17595;50.884;4.346;2022-12-18T10:10:35;18.40;;;8.95;;
30892;SDS011;17595;50.884;4.346;2022-12-18T10:21:45;15.90;;;9.32;;
30892;SDS011;17595;50.884;4.346;2022-12-18T10:24:37;16.27;;;9.60;;
30892;SDS011;17595;50.884;4.346;2022-12-18T10:27:18;17.58;;;9.70;;
30892;SDS011;17595;50.884;4.346;2022-12-18T10:29:48;16.85;;;9.75;;
30892;SDS011;17595;50.884;4.346;2022-12-18T10:32:18;18.15;;;11.52;;
30892;SDS011;17595;50.884;4.346;2022-12-18T10:34:46;15.90;;;9.77;;
30892;SDS011;17595;50.884;4.346;2022-12-18T10:37:17;16.95;;;10.38;;
30892;SDS011;17595;50.884;4.346;2022-12-18T10:39:45;15.52;;;10.45;;
30892;SDS011;17595;50.884;4.346;2022-12-18T10:42:32;15.80;;;9.93;;
30892;SDS011;17595;50.884;4.346;2022-12-18T10:45:02;17.38;;;10.85;;
30892;SDS011;17595;50.884;4.346;2022-12-18T10:47:33;16.60;;;10.38;;
30892;SDS011;17595;50.884;4.346;2022-12-18T10:49:59;19.48;;;10.40;;
30892;SDS011;17595;50.884;4.346;2022-12-18T10:52:25;18.42;;;10.35;;
30892;SDS011;17595;50.884;4.346;2022-12-18T10:54:55;18.23;;;10.50;;
30892;SDS011;17595;50.884;4.346;2022-12-18T10:57:39;16.13;;;10.32;;
30892;SDS011;17595;50.884;4.346;2022-12-18T11:02:55;16.40;;;10.57;;
30892;SDS011;17595;50.884;4.346;2022-12-18T11:05:23;17.50;;;10.25;;
30892;SDS011;17595;50.884;4.346;2022-12-18T11:07:56;18.05;;;10.30;;
30892;SDS011;17595;50.884;4.346;2022-12-18T11:10:28;18.00;;;11.10;;
30892;SDS011;17595;50.884;4.346;2022-12-18T11:13:15;17.50;;;10.68;;
30892;SDS011;17595;50.884;4.346;2022-12-18T11:15:48;18.60;;;10.75;;
30892;SDS011;17595;50.884;4.346;2022-12-18T11:18:20;18.67;;;11.18;;
30892;SDS011;17595;50.884;4.346;2022-12-18T11:20:51;18.38;;;11.15;;
30892;SDS011;17595;50.884;4.346;2022-12-18T11:23:49;18.67;;;11.13;;
30892;SDS011;17595;50.884;4.346;2022-12-18T11:26:17;17.92;;;11.27;;
30892;SDS011;17595;50.884;4.346;2022-12-18T11:33:44;18.73;;;11.52;;
30892;SDS011;17595;50.884;4.346;2022-12-18T11:36:39;17.38;;;10.98;;
30892;SDS011;17595;50.884;4.346;2022-12-18T11:39:11;19.55;;;11.32;;
30892;SDS011;17595;50.884;4.346;2022-12-18T11:41:49;19.67;;;11.30;;
30892;SDS011;17595;50.884;4.346;2022-12-18T11:44:41;20.80;;;12.13;;
30892;SDS011;17595;50.884;4.346;2022-12-18T11:47:37;21.98;;;11.07;;
30892;SDS011;17595;50.884;4.346;2022-12-18T11:50:26;19.50;;;11.20;;
30892;SDS011;17595;50.884;4.346;2022-12-18T11:53:29;23.20;;;12.52;;
30892;SDS011;17595;50.884;4.346;2022-12-18T12:09:18;25.08;;;11.75;;
30892;SDS011;17595;50.884;4.346;2022-12-18T12:11:54;22.55;;;11.50;;
30892;SDS011;17595;50.884;4.346;2022-12-18T12:20:20;21.45;;;11.55;;
30892;SDS011;17595;50.884;4.346;2022-12-18T12:25:39;21.30;;;11.60;;
30892;SDS011;17595;50.884;4.346;2022-12-18T12:28:19;20.75;;;12.10;;
30892;SDS011;17595;50.884;4.346;2022-12-18T12:39:13;22.38;;;12.65;;
30892;SDS011;17595;50.884;4.346;2022-12-18T12:41:42;23.13;;;11.85;;
30892;SDS011;17595;50.884;4.346;2022-12-18T12:44:31;21.60;;;12.32;;
30892;SDS011;17595;50.884;4.346;2022-12-18T12:47:06;20.13;;;11.82;;
30892;SDS011;17595;50.884;4.346;2022-12-18T12:49:39;21.40;;;11.95;;
30892;SDS011;17595;50.884;4.346;2022-12-18T12:52:12;19.70;;;12.18;;
30892;SDS011;17595;50.884;4.346;2022-12-18T12:54:45;22.15;;;12.43;;
30892;SDS011;17595;50.884;4.346;2022-12-18T12:57:17;20.05;;;12.80;;
30892;SDS011;17595;50.884;4.346;2022-12-18T13:02:22;21.25;;;12.93;;
30892;SDS011;17595;50.884;4.346;2022-12-18T13:05:03;24.85;;;13.07;;
30892;SDS011;17595;50.884;4.346;2022-12-18T13:07:47;21.08;;;12.80;;
30892;SDS011;17595;50.884;4.346;2022-12-18T13:15:28;25.17;;;15.18;;
30892;SDS011;17595;50.884;4.346;2022-12-18T13:20:38;25.65;;;14.50;;
30892;SDS011;17595;50.884;4.346;2022-12-18T13:25:51;23.30;;;13.68;;
30892;SDS011;17595;50.884;4.346;2022-12-18T13:28:18;22.92;;;13.75;;
30892;SDS011;17595;50.884;4.346;2022-12-18T13:30:50;25.73;;;14.50;;
30892;SDS011;17595;50.884;4.346;2022-12-18T13:40:57;30.63;;;15.48;;
30892;SDS011;17595;50.884;4.346;2022-12-18T13:48:52;32.45;;;17.77;;
30892;SDS011;17595;50.884;4.346;2022-12-18T13:51:21;32.72;;;17.50;;
30892;SDS011;17595;50.884;4.346;2022-12-18T13:53:49;34.20;;;18.38;;
30892;SDS011;17595;50.884;4.346;2022-12-18T13:56:25;33.97;;;17.40;;
30892;SDS011;17595;50.884;4.346;2022-12-18T14:01:44;29.13;;;16.10;;
30892;SDS011;17595;50.884;4.346;2022-12-18T14:04:18;28.10;;;17.08;;
30892;SDS011;17595;50.884;4.346;2022-12-18T14:06:44;29.75;;;16.92;;
30892;SDS011;17595;50.884;4.346;2022-12-18T14:09:14;33.15;;;17.95;;
30892;SDS011;17595;50.884;4.346;2022-12-18T14:11:45;30.95;;;17.63;;
30892;SDS011;17595;50.884;4.346;2022-12-18T14:14:14;32.15;;;17.75;;
30892;SDS011;17595;50.884;4.346;2022-12-18T14:16:41;30.17;;;17.52;;
30892;SDS011;17595;50.884;4.346;2022-12-18T14:19:12;32.78;;;16.83;;
30892;SDS011;17595;50.884;4.346;2022-12-18T14:21:46;31.27;;;17.45;;
30892;SDS011;17595;50.884;4.346;2022-12-18T14:26:41;31.92;;;19.10;;
30892;SDS011;17595;50.884;4.346;2022-12-18T14:34:42;31.02;;;17.80;;
30892;SDS011;17595;50.884;4.346;2022-12-18T14:37:10;37.45;;;17.90;;
30892;SDS011;17595;50.884;4.346;2022-12-18T14:39:37;31.52;;;18.33;;
30892;SDS011;17595;50.884;4.346;2022-12-18T14:42:03;30.20;;;17.83;;
30892;SDS011;17595;50.884;4.346;2022-12-18T14:44:29;30.90;;;17.00;;
30892;SDS011;17595;50.884;4.346;2022-12-18T14:46:55;37.45;;;19.08;;
30892;SDS011;17595;50.884;4.346;2022-12-18T14:49:25;35.45;;;18.67;;
30892;SDS011;17595;50.884;4.346;2022-12-18T14:51:59;36.00;;;18.55;;
30892;SDS011;17595;50.884;4.346;2022-12-18T14:54:27;35.22;;;19.48;;
30892;SDS011;17595;50.884;4.346;2022-12-18T14:57:04;33.42;;;17.83;;
30892;SDS011;17595;50.884;4.346;2022-12-18T14:59:38;30.85;;;17.95;;
30892;SDS011;17595;50.884;4.346;2022-12-18T15:02:08;35.85;;;17.95;;
30892;SDS011;17595;50.884;4.346;2022-12-18T15:04:39;30.63;;;17.83;;
30892;SDS011;17595;50.884;4.346;2022-12-18T15:07:13;38.33;;;18.35;;
30892;SDS011;17595;50.884;4.346;2022-12-18T15:10:30;35.78;;;19.02;;
30892;SDS011;17595;50.884;4.346;2022-12-18T15:20:33;31.63;;;17.92;;
30892;SDS011;17595;50.884;4.346;2022-12-18T15:23:18;32.75;;;18.25;;
30892;SDS011;17595;50.884;4.346;2022-12-18T15:25:59;35.80;;;18.50;;
30892;SDS011;17595;50.884;4.346;2022-12-18T15:28:35;32.88;;;18.65;;
30892;SDS011;17595;50.884;4.346;2022-12-18T15:33:36;30.73;;;17.73;;
30892;SDS011;17595;50.884;4.346;2022-12-18T15:36:14;31.88;;;17.15;;
30892;SDS011;17595;50.884;4.346;2022-12-18T15:38:41;32.75;;;17.63;;
30892;SDS011;17595;50.884;4.346;2022-12-18T15:41:13;35.40;;;18.05;;
30892;SDS011;17595;50.884;4.346;2022-12-18T15:43:39;31.80;;;18.95;;
30892;SDS011;17595;50.884;4.346;2022-12-18T15:46:06;34.13;;;17.40;;
30892;SDS011;17595;50.884;4.346;2022-12-18T15:48:46;33.90;;;18.33;;
30892;SDS011;17595;50.884;4.346;2022-12-18T15:51:18;36.47;;;19.25;;
30892;SDS011;17595;50.884;4.346;2022-12-18T15:53:50;37.33;;;19.27;;
30892;SDS011;17595;50.884;4.346;2022-12-18T15:56:18;33.38;;;18.15;;
30892;SDS011;17595;50.884;4.346;2022-12-18T15:59:04;40.72;;;19.10;;
30892;SDS011;17595;50.884;4.346;2022-12-18T16:01:45;32.47;;;18.08;;
30892;SDS011;17595;50.884;4.346;2022-12-18T16:04:13;32.40;;;18.52;;
30892;SDS011;17595;50.884;4.346;2022-12-18T16:06:41;33.28;;;18.10;;
30892;SDS011;17595;50.884;4.346;2022-12-18T16:09:07;38.45;;;19.90;;
30892;SDS011;17595;50.884;4.346;2022-12-18T16:11:33;36.80;;;18.73;;
30892;SDS011;17595;50.884;4.346;2022-12-18T16:14:20;34.50;;;18.40;;
30892;SDS011;17595;50.884;4.346;2022-12-18T16:16:49;33.05;;;17.98;;
30892;SDS011;17595;50.884;4.346;2022-12-18T16:19:17;32.80;;;17.87;;
30892;SDS011;17595;50.884;4.346;2022-12-18T16:21:43;33.45;;;18.20;;
30892;SDS011;17595;50.884;4.346;2022-12-18T16:24:17;34.80;;;18.05;;
30892;SDS011;17595;50.884;4.346;2022-12-18T16:26:53;38.70;;;18.60;;
30892;SDS011;17595;50.884;4.346;2022-12-18T16:31:51;33.78;;;16.73;;
30892;SDS011;17595;50.884;4.346;2022-12-18T16:36:48;34.53;;;18.88;;
30892;SDS011;17595;50.884;4.346;2022-12-18T16:39:15;34.97;;;19.23;;
30892;SDS011;17595;50.884;4.346;2022-12-18T16:41:41;32.60;;;18.80;;
30892;SDS011;17595;50.884;4.346;2022-12-18T16:44:06;34.40;;;17.85;;
30892;SDS011;17595;50.884;4.346;2022-12-18T16:46:32;35.95;;;19.25;;
30892;SDS011;17595;50.884;4.346;2022-12-18T16:48:58;34.63;;;18.17;;
30892;SDS011;17595;50.884;4.346;2022-12-18T16:51:25;32.83;;;17.13;;
30892;SDS011;17595;50.884;4.346;2022-12-18T16:53:52;34.70;;;18.23;;
30892;SDS011;17595;50.884;4.346;2022-12-18T16:56:18;35.85;;;18.27;;
30892;SDS011;17595;50.884;4.346;2022-12-18T16:58:49;36.85;;;19.95;;
30892;SDS011;17595;50.884;4.346;2022-12-18T17:01:15;32.25;;;17.60;;
30892;SDS011;17595;50.884;4.346;2022-12-18T17:03:41;35.38;;;17.83;;
30892;SDS011;17595;50.884;4.346;2022-12-18T17:06:06;32.97;;;17.88;;
30892;SDS011;17595;50.884;4.346;2022-12-18T17:08:32;34.33;;;18.35;;